createdAt,value
2018-12-16T00:02:25.926Z,100841.61
2018-12-16T00:04:54.201Z,100852.42
2018-12-16T00:07:22.520Z,100858.66
2018-12-16T00:09:50.799Z,100864.52
2018-12-16T00:12:19.109Z,100860.05
2018-12-16T00:14:47.399Z,100867.30
2018-12-16T00:17:15.676Z,100876.69
2018-12-16T00:19:43.984Z,100884.59
2018-12-16T00:22:12.253Z,100891.17
2018-12-16T00:24:40.569Z,100907.25
2018-12-16T00:27:10.790Z,100893.52
2018-12-16T00:29:39.083Z,100889.71
2018-12-16T00:32:07.420Z,100872.50
2018-12-16T00:34:35.866Z,100877.39
2018-12-16T00:37:04.153Z,100878.59
2018-12-16T00:39:32.532Z,100874.34
2018-12-16T00:42:00.802Z,100855.13
2018-12-16T00:44:29.165Z,100843.62
2018-12-16T00:46:57.497Z,100834.98
2018-12-16T00:49:26.077Z,100853.49
2018-12-16T00:51:54.318Z,100836.87
2018-12-16T00:54:22.609Z,100811.91
2018-12-16T00:56:50.876Z,100809.02
2018-12-16T00:59:19.166Z,100790.18
2018-12-16T01:01:48.151Z,100776.67
2018-12-16T01:04:16.448Z,100776.92
2018-12-16T01:06:44.958Z,100785.66
2018-12-16T01:09:13.264Z,100791.16
2018-12-16T01:11:41.577Z,100776.73
2018-12-16T01:14:10.193Z,100781.22
2018-12-16T01:16:38.488Z,100776.50
2018-12-16T01:19:06.766Z,100781.98
2018-12-16T01:21:35.300Z,100768.69
2018-12-16T01:24:03.566Z,100764.11
2018-12-16T01:26:31.867Z,100767.58
2018-12-16T01:29:00.143Z,100759.28
2018-12-16T01:31:28.643Z,100762.23
2018-12-16T01:33:57.359Z,100757.59
2018-12-16T01:36:25.621Z,100750.77
2018-12-16T01:38:53.893Z,100756.99
2018-12-16T01:41:22.205Z,100743.52
2018-12-16T01:43:51.309Z,100744.34
2018-12-16T01:46:19.766Z,100738.17
2018-12-16T01:48:47.999Z,100736.23
2018-12-16T01:51:16.844Z,100732.58
2018-12-16T01:53:45.112Z,100723.46
2018-12-16T01:56:13.429Z,100716.97
2018-12-16T01:58:41.700Z,100716.41
2018-12-16T02:01:10.077Z,100705.75
2018-12-16T02:03:38.352Z,100704.16
2018-12-16T02:06:06.647Z,100706.16
2018-12-16T02:08:35.703Z,100696.38
2018-12-16T02:11:03.972Z,100698.48
2018-12-16T02:13:32.248Z,100683.84
2018-12-16T02:16:00.605Z,100688.44
2018-12-16T02:18:29.360Z,100684.44
2018-12-16T02:20:57.648Z,100677.36
2018-12-16T02:23:26.985Z,100678.66
2018-12-16T02:25:55.640Z,100663.88
2018-12-16T02:28:23.948Z,100653.91
2018-12-16T02:30:52.222Z,100639.81
2018-12-16T02:33:21.078Z,100635.27
2018-12-16T02:35:49.650Z,100640.66
2018-12-16T02:38:17.936Z,100641.30
2018-12-16T02:40:46.852Z,100654.92
2018-12-16T02:43:15.369Z,100648.41
2018-12-16T02:45:43.889Z,100634.75
2018-12-16T02:48:13.173Z,100625.13
2018-12-16T02:50:41.453Z,100629.95
2018-12-16T02:53:09.749Z,100620.66
2018-12-16T02:55:38.313Z,100623.35
2018-12-16T02:58:07.469Z,100620.23
2018-12-16T03:00:35.750Z,100625.12
2018-12-16T03:03:04.706Z,100620.85
2018-12-16T03:05:33.024Z,100622.84
2018-12-16T03:08:01.356Z,100609.62
2018-12-16T03:10:29.737Z,100608.42
2018-12-16T03:12:58.044Z,100621.28
2018-12-16T03:15:26.573Z,100613.20
2018-12-16T03:17:54.884Z,100612.12
2018-12-16T03:20:23.262Z,100602.14
2018-12-16T03:22:51.558Z,100579.66
2018-12-16T03:25:20.142Z,100577.49
2018-12-16T03:27:48.444Z,100571.20
2018-12-16T03:30:16.750Z,100570.06
2018-12-16T03:32:45.132Z,100568.27
2018-12-16T03:35:13.560Z,100564.75
2018-12-16T03:37:41.872Z,100567.34
2018-12-16T03:40:10.683Z,100554.78
2018-12-16T03:42:39.975Z,100553.80
2018-12-16T03:45:08.759Z,100558.90
2018-12-16T03:47:37.117Z,100558.30
2018-12-16T03:50:05.508Z,100561.33
2018-12-16T03:52:33.791Z,100566.16
2018-12-16T03:55:02.335Z,100559.00
2018-12-16T03:57:30.644Z,100553.58
2018-12-16T03:59:59.153Z,100553.08
2018-12-16T04:02:27.854Z,100547.58
2018-12-16T04:04:56.149Z,100547.05
2018-12-16T04:07:24.452Z,100549.18
2018-12-16T04:09:52.749Z,100549.90
2018-12-16T04:12:21.079Z,100548.20
2018-12-16T04:14:49.602Z,100542.85
2018-12-16T04:17:17.955Z,100544.21
2018-12-16T04:19:47.218Z,100544.36
2018-12-16T04:22:15.714Z,100537.49
2018-12-16T04:24:44.303Z,100534.73
2018-12-16T04:27:12.687Z,100536.57
2018-12-16T04:29:40.969Z,100526.54
2018-12-16T04:32:09.292Z,100538.98
2018-12-16T04:34:37.584Z,100538.34
2018-12-16T04:37:06.190Z,100532.77
2018-12-16T04:39:34.768Z,100534.87
2018-12-16T04:42:04.148Z,100540.30
2018-12-16T04:44:32.536Z,100533.48
2018-12-16T04:47:00.816Z,100535.14
2018-12-16T04:49:29.125Z,100543.67
2018-12-16T04:51:57.433Z,100545.88
2018-12-16T04:54:25.763Z,100555.58
2018-12-16T04:56:54.047Z,100559.33
2018-12-16T04:59:22.380Z,100554.28
2018-12-16T05:01:50.685Z,100558.84
2018-12-16T05:04:18.990Z,100557.49
2018-12-16T05:06:48.241Z,100555.27
2018-12-16T05:09:16.533Z,100557.75
2018-12-16T05:11:44.885Z,100543.77
2018-12-16T05:14:13.168Z,100541.02
2018-12-16T05:16:41.524Z,100540.19
2018-12-16T05:19:09.854Z,100529.24
2018-12-16T05:21:38.138Z,100523.47
2018-12-16T05:24:06.603Z,100508.23
2018-12-16T05:26:35.084Z,100488.56
2018-12-16T05:29:03.480Z,100492.05
2018-12-16T05:31:31.778Z,100505.89
2018-12-16T05:34:00.096Z,100508.05
2018-12-16T05:36:28.613Z,100523.76
2018-12-16T05:38:56.906Z,100536.73
2018-12-16T05:41:25.237Z,100528.06
2018-12-16T05:43:53.805Z,100511.70
2018-12-16T05:46:22.332Z,100517.05
2018-12-16T05:48:51.839Z,100537.09
2018-12-16T05:51:20.156Z,100540.03
2018-12-16T05:53:48.874Z,100540.89
2018-12-16T05:56:17.535Z,100523.09
2018-12-16T05:58:46.524Z,100525.31
2018-12-16T06:01:14.849Z,100533.56
2018-12-16T06:03:43.309Z,100531.91
2018-12-16T06:06:11.637Z,100535.25
2018-12-16T06:08:41.013Z,100533.66
2018-12-16T06:11:09.385Z,100518.14
2018-12-16T06:13:37.701Z,100511.41
2018-12-16T06:16:06.144Z,100513.92
2018-12-16T06:18:34.457Z,100516.46
2018-12-16T06:21:02.956Z,100525.25
2018-12-16T06:23:31.567Z,100510.27
2018-12-16T06:26:00.049Z,100507.73
2018-12-16T06:28:28.385Z,100501.69
2018-12-16T06:30:56.755Z,100510.20
2018-12-16T06:33:25.071Z,100510.67
2018-12-16T06:35:53.383Z,100523.44
2018-12-16T06:38:21.681Z,100510.33
2018-12-16T06:40:50.005Z,100509.52
2018-12-16T06:43:18.314Z,100506.41
2018-12-16T06:45:46.697Z,100509.55
2018-12-16T06:48:14.984Z,100502.45
2018-12-16T06:50:43.289Z,100504.18
2018-12-16T06:53:11.574Z,100500.19
2018-12-16T06:55:43.278Z,100491.67
2018-12-16T06:58:10.772Z,100505.55
2018-12-16T07:00:39.071Z,100501.95
2018-12-16T07:03:07.344Z,100501.55
2018-12-16T07:05:35.764Z,100498.89
2018-12-16T07:08:04.056Z,100501.22
2018-12-16T07:10:32.733Z,100490.89
2018-12-16T07:13:02.181Z,100499.56
2018-12-16T07:15:30.527Z,100499.13
2018-12-16T07:17:58.867Z,100506.47
2018-12-16T07:20:27.161Z,100507.00
2018-12-16T07:22:56.492Z,100507.13
2018-12-16T07:25:24.798Z,100497.84
2018-12-16T07:27:53.157Z,100497.97
2018-12-16T07:30:21.967Z,100495.20
2018-12-16T07:32:50.465Z,100488.33
2018-12-16T07:35:18.767Z,100490.15
2018-12-16T07:37:47.867Z,100494.67
2018-12-16T07:40:16.171Z,100493.99
2018-12-16T07:42:45.172Z,100505.02
2018-12-16T07:45:13.656Z,100500.95
2018-12-16T07:47:41.935Z,100495.45
2018-12-16T07:50:10.330Z,100499.41
2018-12-16T07:52:38.687Z,100515.82
2018-12-16T07:55:07.204Z,100514.52
2018-12-16T07:57:35.602Z,100512.84
2018-12-16T08:00:06.262Z,100508.69
2018-12-16T08:02:36.328Z,100519.27
2018-12-16T08:05:05.513Z,100516.67
2018-12-16T08:07:33.856Z,100520.70
2018-12-16T08:10:02.220Z,100523.98
2018-12-16T08:12:30.530Z,100530.08
2018-12-16T08:14:58.821Z,100536.41
2018-12-16T08:17:27.171Z,100542.28
2018-12-16T08:19:55.468Z,100540.30
2018-12-16T08:22:23.777Z,100536.58
2018-12-16T08:24:52.104Z,100538.04
2018-12-16T08:27:20.438Z,100539.06
2018-12-16T08:29:48.739Z,100539.69
2018-12-16T08:32:17.040Z,100544.78
2018-12-16T08:34:45.322Z,100545.25
2018-12-16T08:37:13.626Z,100545.34
2018-12-16T08:39:42.602Z,100546.22
2018-12-16T08:42:11.076Z,100547.41
2018-12-16T08:44:40.147Z,100540.00
2018-12-16T08:47:08.446Z,100537.23
2018-12-16T08:49:36.799Z,100547.93
2018-12-16T08:52:05.096Z,100555.20
2018-12-16T08:54:33.400Z,100561.18
2018-12-16T08:57:01.672Z,100560.70
2018-12-16T08:59:30.533Z,100553.42
2018-12-16T09:01:58.833Z,100548.76
2018-12-16T09:04:28.980Z,100550.27
2018-12-16T09:06:57.375Z,100546.08
2018-12-16T09:09:26.161Z,100546.04
2018-12-16T09:11:54.457Z,100554.42
2018-12-16T09:14:22.905Z,100538.70
2018-12-16T09:16:51.192Z,100543.17
2018-12-16T09:19:19.501Z,100546.53
2018-12-16T09:21:47.790Z,100542.36
2018-12-16T09:24:16.796Z,100540.12
2018-12-16T09:26:45.123Z,100541.20
2018-12-16T09:29:13.394Z,100551.12
2018-12-16T09:31:41.716Z,100555.75
2018-12-16T09:34:10.021Z,100558.57
2018-12-16T09:36:38.396Z,100553.08
2018-12-16T09:39:06.905Z,100556.75
2018-12-16T09:41:35.210Z,100546.94
2018-12-16T09:44:03.596Z,100546.70
2018-12-16T09:46:32.813Z,100546.18
2018-12-16T09:49:01.144Z,100545.56
2018-12-16T09:51:29.453Z,100545.53
2018-12-16T09:53:57.745Z,100547.62
2018-12-16T09:56:26.072Z,100541.03
2018-12-16T09:58:54.385Z,100542.65
2018-12-16T10:01:22.697Z,100541.86
2018-12-16T10:03:51.018Z,100543.55
2018-12-16T10:06:19.508Z,100536.65
2018-12-16T10:08:47.821Z,100536.91
2018-12-16T10:11:16.271Z,100553.80
2018-12-16T10:13:44.565Z,100545.80
2018-12-16T10:16:12.871Z,100544.73
2018-12-16T10:18:41.169Z,100537.23
2018-12-16T10:21:09.445Z,100529.94
2018-12-16T10:23:37.753Z,100537.09
2018-12-16T10:26:06.040Z,100541.05
2018-12-16T10:28:34.340Z,100543.48
2018-12-16T10:31:02.867Z,100541.06
2018-12-16T10:33:31.415Z,100537.42
2018-12-16T10:35:59.707Z,100538.72
2018-12-16T10:38:28.190Z,100539.02
2018-12-16T10:40:56.456Z,100542.25
2018-12-16T10:43:24.788Z,100546.65
2018-12-16T10:45:53.079Z,100538.64
2018-12-16T10:48:21.352Z,100527.91
2018-12-16T10:50:49.703Z,100526.87
2018-12-16T10:53:18.046Z,100530.27
2018-12-16T10:55:46.337Z,100518.09
2018-12-16T10:58:14.627Z,100522.73
2018-12-16T11:00:48.424Z,100535.23
2018-12-16T11:03:16.716Z,100540.45
2018-12-16T11:05:45.096Z,100532.84
2018-12-16T11:08:13.388Z,100526.73
2018-12-16T11:10:41.717Z,100523.19
2018-12-16T11:13:10.579Z,100526.77
2018-12-16T11:15:38.855Z,100518.13
2018-12-16T11:18:07.168Z,100520.33
2018-12-16T11:20:35.528Z,100515.10
2018-12-16T11:23:03.956Z,100517.20
2018-12-16T11:25:32.245Z,100521.09
2018-12-16T11:28:01.578Z,100522.05
2018-12-16T11:30:29.894Z,100517.80
2018-12-16T11:32:58.187Z,100519.52
2018-12-16T11:35:26.504Z,100523.88
2018-12-16T11:37:56.413Z,100522.95
2018-12-16T11:40:25.017Z,100519.92
2018-12-16T11:42:53.324Z,100517.84
2018-12-16T11:45:21.641Z,100516.33
2018-12-16T11:47:49.940Z,100512.54
2018-12-16T11:50:18.321Z,100512.02
2018-12-16T11:52:47.003Z,100503.81
2018-12-16T11:55:15.358Z,100493.70
2018-12-16T11:57:43.644Z,100481.36
2018-12-16T12:00:12.403Z,100473.81
2018-12-16T12:02:40.717Z,100479.54
2018-12-16T12:05:09.075Z,100476.85
2018-12-16T12:07:37.386Z,100473.95
2018-12-16T12:10:06.449Z,100477.91
2018-12-16T12:12:34.769Z,100481.45
2018-12-16T12:15:03.287Z,100485.99
2018-12-16T12:17:32.104Z,100488.98
2018-12-16T12:20:00.418Z,100490.18
2018-12-16T12:22:28.742Z,100483.57
2018-12-16T12:24:57.200Z,100491.50
2018-12-16T12:27:25.516Z,100488.30
2018-12-16T12:29:54.826Z,100477.47
2018-12-16T12:32:23.096Z,100484.26
2018-12-16T12:34:51.415Z,100485.75
2018-12-16T12:37:19.705Z,100481.61
2018-12-16T12:39:48.008Z,100483.14
2018-12-16T12:42:16.920Z,100475.04
2018-12-16T12:44:45.267Z,100481.13
2018-12-16T12:47:13.561Z,100481.83
2018-12-16T12:49:45.131Z,100487.54
2018-12-16T12:52:12.684Z,100492.73
2018-12-16T12:54:41.001Z,100501.42
2018-12-16T12:57:09.287Z,100496.55
2018-12-16T12:59:37.611Z,100496.92
2018-12-16T13:02:05.967Z,100496.49
2018-12-16T13:04:34.372Z,100500.12
2018-12-16T13:07:02.672Z,100500.02
2018-12-16T13:09:30.979Z,100484.02
2018-12-16T13:11:59.259Z,100500.92
2018-12-16T13:14:27.579Z,100502.14
2018-12-16T13:16:55.881Z,100498.78
2018-12-16T13:19:24.192Z,100493.41
2018-12-16T13:21:52.473Z,100492.08
2018-12-16T13:24:20.808Z,100493.56
2018-12-16T13:26:49.744Z,100501.27
2018-12-16T13:29:18.944Z,100505.16
2018-12-16T13:31:47.424Z,100510.55
2018-12-16T13:34:15.705Z,100501.50
2018-12-16T13:36:44.024Z,100506.11
2018-12-16T13:39:12.307Z,100503.16
2018-12-16T13:41:40.621Z,100510.20
2018-12-16T13:44:08.903Z,100508.52
2018-12-16T13:46:37.223Z,100514.33
2018-12-16T13:49:05.510Z,100512.19
2018-12-16T13:51:33.825Z,100508.28
2018-12-16T13:54:02.125Z,100508.88
2018-12-16T13:56:30.450Z,100509.77
2018-12-16T13:58:59.372Z,100513.08
2018-12-16T14:01:27.688Z,100508.96
2018-12-16T14:03:55.981Z,100510.41
2018-12-16T14:06:24.304Z,100513.47
2018-12-16T14:08:53.224Z,100511.86
2018-12-16T14:11:21.562Z,100511.49
2018-12-16T14:13:49.850Z,100519.47
2018-12-16T14:16:18.171Z,100515.64
2018-12-16T14:18:46.973Z,100518.44
2018-12-16T14:21:15.784Z,100512.98
2018-12-16T14:23:44.075Z,100520.35
2018-12-16T14:26:12.376Z,100514.06
2018-12-16T14:28:40.693Z,100508.40
2018-12-16T14:31:09.002Z,100505.43
2018-12-16T14:33:37.313Z,100511.86
2018-12-16T14:36:05.670Z,100512.06
2018-12-16T14:38:34.668Z,100517.20
2018-12-16T14:41:02.996Z,100515.47
2018-12-16T14:43:31.290Z,100522.66
2018-12-16T14:45:59.621Z,100530.31
2018-12-16T14:48:28.282Z,100524.80
2018-12-16T14:50:57.152Z,100537.05
2018-12-16T14:53:25.440Z,100537.69
2018-12-16T14:55:55.366Z,100545.66
2018-12-16T14:58:24.000Z,100551.77
2018-12-16T15:00:52.314Z,100553.71
2018-12-16T15:03:20.621Z,100547.65
2018-12-16T15:05:48.908Z,100537.77
2018-12-16T15:08:17.714Z,100551.78
2018-12-16T15:10:46.017Z,100548.31
2018-12-16T15:13:14.592Z,100545.41
2018-12-16T15:15:42.921Z,100541.39
2018-12-16T15:18:11.210Z,100540.10
2018-12-16T15:20:39.575Z,100548.51
2018-12-16T15:23:07.916Z,100548.40
2018-12-16T15:25:36.201Z,100551.66
2018-12-16T15:28:04.654Z,100548.59
2018-12-16T15:30:32.953Z,100545.63
2018-12-16T15:33:01.229Z,100551.77
2018-12-16T15:35:29.588Z,100546.97
2018-12-16T15:37:57.866Z,100552.41
2018-12-16T15:40:26.382Z,100543.00
2018-12-16T15:42:54.680Z,100557.12
2018-12-16T15:45:22.978Z,100561.11
2018-12-16T15:47:51.271Z,100552.16
2018-12-16T15:50:19.590Z,100563.24
2018-12-16T15:52:48.174Z,100561.05
2018-12-16T15:55:16.454Z,100567.65
2018-12-16T15:57:44.746Z,100569.11
2018-12-16T16:00:13.177Z,100575.00
2018-12-16T16:02:41.461Z,100577.63
2018-12-16T16:05:09.731Z,100582.14
2018-12-16T16:07:38.031Z,100579.55
2018-12-16T16:10:07.651Z,100580.74
2018-12-16T16:12:36.009Z,100592.13
2018-12-16T16:15:04.838Z,100592.54
2018-12-16T16:17:33.384Z,100591.12
2018-12-16T16:20:01.697Z,100596.86
2018-12-16T16:22:30.137Z,100596.59
2018-12-16T16:24:58.439Z,100614.42
2018-12-16T16:27:26.740Z,100603.80
2018-12-16T16:29:55.103Z,100605.53
2018-12-16T16:32:23.414Z,100606.98
2018-12-16T16:34:51.790Z,100603.50
2018-12-16T16:37:20.124Z,100599.41
2018-12-16T16:39:48.487Z,100608.47
2018-12-16T16:42:17.285Z,100608.22
2018-12-16T16:44:45.562Z,100612.13
2018-12-16T16:47:13.864Z,100611.45
2018-12-16T16:49:42.405Z,100613.37
2018-12-16T16:52:10.726Z,100613.89
2018-12-16T16:54:39.100Z,100613.52
2018-12-16T16:57:07.406Z,100615.75
2018-12-16T16:59:35.684Z,100617.98
2018-12-16T17:02:04.036Z,100621.91
2018-12-16T17:04:32.542Z,100613.94
2018-12-16T17:07:00.810Z,100619.19
2018-12-16T17:09:29.115Z,100611.17
2018-12-16T17:11:57.385Z,100613.03
2018-12-16T17:14:25.723Z,100615.20
2018-12-16T17:16:54.077Z,100612.36
2018-12-16T17:19:22.735Z,100623.55
2018-12-16T17:21:51.342Z,100612.73
2018-12-16T17:24:19.612Z,100621.80
2018-12-16T17:26:48.121Z,100623.09
2018-12-16T17:29:16.451Z,100623.17
2018-12-16T17:31:45.127Z,100629.70
2018-12-16T17:34:13.406Z,100630.17
2018-12-16T17:36:41.787Z,100624.09
2018-12-16T17:39:10.076Z,100628.39
2018-12-16T17:41:38.461Z,100628.09
2018-12-16T17:44:06.801Z,100629.27
2018-12-16T17:46:35.092Z,100628.20
2018-12-16T17:49:04.604Z,100627.27
2018-12-16T17:51:32.936Z,100631.27
2018-12-16T17:54:01.225Z,100635.42
2018-12-16T17:56:29.525Z,100617.09
2018-12-16T17:58:58.683Z,100641.73
2018-12-16T18:01:26.988Z,100641.50
2018-12-16T18:03:55.281Z,100640.65
2018-12-16T18:06:23.617Z,100641.38
2018-12-16T18:08:51.992Z,100645.91
2018-12-16T18:11:20.378Z,100651.50
2018-12-16T18:13:48.682Z,100655.78
2018-12-16T18:16:17.017Z,100656.47
2018-12-16T18:18:45.376Z,100661.01
2018-12-16T18:21:13.707Z,100663.92
2018-12-16T18:23:42.065Z,100660.83
2018-12-16T18:26:10.358Z,100663.44
2018-12-16T18:28:38.698Z,100668.52
2018-12-16T18:31:06.990Z,100665.67
2018-12-16T18:33:35.256Z,100665.91
2018-12-16T18:36:03.606Z,100667.42
2018-12-16T18:38:31.920Z,100664.44
2018-12-16T18:41:00.236Z,100678.27
2018-12-16T18:43:28.564Z,100677.48
2018-12-16T18:45:56.852Z,100684.48
2018-12-16T18:48:25.172Z,100685.24
2018-12-16T18:50:53.448Z,100687.85
2018-12-16T18:53:21.998Z,100686.48
2018-12-16T18:55:50.319Z,100684.04
2018-12-16T18:58:19.531Z,100689.53
2018-12-16T19:00:47.849Z,100687.03
2018-12-16T19:03:16.141Z,100688.26
2018-12-16T19:05:44.472Z,100682.12
2018-12-16T19:08:12.855Z,100694.23
2018-12-16T19:10:41.170Z,100693.31
2018-12-16T19:13:09.490Z,100693.33
2018-12-16T19:15:37.863Z,100698.52
2018-12-16T19:18:06.141Z,100694.16
2018-12-16T19:20:34.461Z,100693.45
2018-12-16T19:23:02.763Z,100693.31
2018-12-16T19:25:31.093Z,100695.44
2018-12-16T19:27:59.353Z,100697.74
2018-12-16T19:30:27.681Z,100693.69
2018-12-16T19:32:55.985Z,100696.06
2018-12-16T19:35:24.299Z,100696.50
2018-12-16T19:37:52.590Z,100698.19
2018-12-16T19:40:20.928Z,100700.28
2018-12-16T19:42:49.292Z,100710.23
2018-12-16T19:45:17.600Z,100708.31
2018-12-16T19:47:49.537Z,100707.18
2018-12-16T19:50:16.207Z,100713.70
2018-12-16T19:52:44.719Z,100721.98
2018-12-16T19:55:13.673Z,100723.29
2018-12-16T19:57:41.996Z,100716.14
2018-12-16T20:00:11.317Z,100724.15
2018-12-16T20:02:39.732Z,100718.93
2018-12-16T20:05:10.450Z,100719.38
2018-12-16T20:07:38.800Z,100725.34
2018-12-16T20:10:08.322Z,100710.54
2018-12-16T20:12:36.620Z,100733.24
2018-12-16T20:15:06.617Z,100729.40
2018-12-16T20:17:35.532Z,100731.63
2018-12-16T20:20:05.677Z,100731.56
2018-12-16T20:22:33.994Z,100733.42
2018-12-16T20:25:02.277Z,100733.01
2018-12-16T20:27:31.783Z,100731.48
2018-12-16T20:30:00.069Z,100733.25
2018-12-16T20:32:28.360Z,100739.39
2018-12-16T20:34:56.686Z,100746.09
2018-12-16T20:37:25.015Z,100745.85
2018-12-16T20:39:53.377Z,100756.20
2018-12-16T20:42:21.706Z,100753.89
2018-12-16T20:44:50.047Z,100758.63
2018-12-16T20:47:18.337Z,100761.96
2018-12-16T20:49:46.836Z,100755.50
2018-12-16T20:52:16.328Z,100751.77
2018-12-16T20:54:44.662Z,100763.78
2018-12-16T20:57:18.712Z,100767.64
2018-12-16T20:59:43.222Z,100767.12
2018-12-16T21:02:12.499Z,100766.19
2018-12-16T21:04:40.840Z,100766.74
2018-12-16T21:07:09.111Z,100762.41
2018-12-16T21:09:37.442Z,100762.14
2018-12-16T21:12:07.711Z,100760.83
2018-12-16T21:14:41.504Z,100761.34
2018-12-16T21:17:15.446Z,100772.79
2018-12-16T21:19:43.821Z,100775.81
2018-12-16T21:22:12.120Z,100770.11
2018-12-16T21:24:40.439Z,100765.02
2018-12-16T21:27:08.791Z,100767.50
2018-12-16T21:29:37.077Z,100759.73
2018-12-16T21:32:05.397Z,100759.97
2018-12-16T21:34:33.687Z,100761.41
2018-12-16T21:37:01.995Z,100758.18
2018-12-16T21:39:30.279Z,100754.56
2018-12-16T21:41:58.589Z,100755.32
2018-12-16T21:44:26.865Z,100762.61
2018-12-16T21:46:55.244Z,100761.65
2018-12-16T21:49:23.584Z,100768.31
2018-12-16T21:51:52.042Z,100762.95
2018-12-16T21:54:20.462Z,100768.17
2018-12-16T21:56:48.752Z,100776.53
2018-12-16T21:59:17.038Z,100773.91
2018-12-16T22:01:45.350Z,100778.00
2018-12-16T22:04:13.694Z,100773.97
2018-12-16T22:06:42.015Z,100777.34
2018-12-16T22:09:11.819Z,100781.25
2018-12-16T22:11:40.518Z,100782.93
2018-12-16T22:14:08.848Z,100790.56
2018-12-16T22:16:37.139Z,100787.09
2018-12-16T22:19:05.451Z,100795.06
2018-12-16T22:21:33.736Z,100789.84
2018-12-16T22:24:02.068Z,100789.14
2018-12-16T22:26:30.348Z,100793.06
2018-12-16T22:28:58.660Z,100785.54
2018-12-16T22:31:26.946Z,100793.92
2018-12-16T22:33:55.258Z,100797.61
2018-12-16T22:36:23.678Z,100803.52
2018-12-16T22:38:52.005Z,100800.45
2018-12-16T22:41:20.308Z,100803.89
2018-12-16T22:43:48.807Z,100805.31
2018-12-16T22:46:17.942Z,100802.95
2018-12-16T22:48:46.217Z,100807.06
2018-12-16T22:51:14.516Z,100805.62
2018-12-16T22:53:42.878Z,100799.47
2018-12-16T22:56:11.195Z,100810.05
2018-12-16T22:58:41.145Z,100810.53
2018-12-16T23:01:15.330Z,100813.67
2018-12-16T23:03:43.645Z,100808.79
2018-12-16T23:06:11.972Z,100807.00
2018-12-16T23:08:40.277Z,100805.88
2018-12-16T23:11:08.604Z,100799.72
2018-12-16T23:13:36.938Z,100800.95
2018-12-16T23:16:05.325Z,100800.10
2018-12-16T23:18:33.599Z,100799.65
2018-12-16T23:21:02.238Z,100804.70
2018-12-16T23:23:30.790Z,100800.47
2018-12-16T23:25:59.106Z,100796.55
2018-12-16T23:28:27.720Z,100799.30
2018-12-16T23:30:56.067Z,100802.09
2018-12-16T23:33:24.487Z,100808.23
2018-12-16T23:35:52.792Z,100808.45
2018-12-16T23:38:21.104Z,100806.45
2018-12-16T23:40:49.412Z,100804.70
2018-12-16T23:43:17.722Z,100801.33
2018-12-16T23:45:46.055Z,100797.99
2018-12-16T23:48:14.368Z,100802.95
2018-12-16T23:50:42.700Z,100800.47
2018-12-16T23:53:11.004Z,100802.26
2018-12-16T23:55:39.318Z,100794.88
2018-12-16T23:58:07.629Z,100802.09
